Time;durP1;ratioP1;P1;durP2;ratioP2;P2;SDS_P1;SDS_P2;PMS_P1;PMS_P2;Temp;Humidity;BMP_temperature;BMP_pressure;BME280_temperature;BME280_humidity;BME280_pressure;Samples;Min_cycle;Max_cycle;Signal;HPM_P1;HPM_P2
2022/02/08 00:02:16;;;;;;;4.20;2.43;;;;;;;15.89;45.56;98229.41;4867199;29;20672;-84
2022/02/08 00:04:43;;;;;;;2.47;1.73;;;;;;;14.59;45.07;98123.84;4862102;29;20217;-84
2022/02/08 00:07:11;;;;;;;3.80;2.20;;;;;;;15.60;45.80;98188.72;4880449;29;20233;-85
2022/02/08 00:09:38;;;;;;;3.00;1.80;;;;;;;17.65;45.58;98542.53;4894781;29;20352;-84
2022/02/08 00:12:13;;;;;;;3.17;2.03;;;;;;;15.59;45.41;98189.47;4884505;29;20294;-85
2022/02/08 00:14:43;;;;;;;3.60;2.00;;;;;;;18.77;45.65;98744.44;4878005;29;20207;-84
2022/02/08 00:17:09;;;;;;;2.00;1.63;;;;;;;16.04;45.42;98292.06;4875862;29;20238;-85
2022/02/08 00:19:36;;;;;;;3.40;2.10;;;;;;;15.50;45.68;98176.22;4844885;29;20237;-84
2022/02/08 00:22:06;;;;;;;3.93;2.20;;;;;;;14.71;45.56;98098.50;4877693;29;20199;-84
2022/02/08 00:24:35;;;;;;;3.10;1.97;;;;;;;17.35;45.58;98503.38;4860865;29;20607;-85
2022/02/08 00:27:04;;;;;;;2.40;1.80;;;;;;;17.92;45.73;98603.53;4857277;29;20234;-85
2022/02/08 00:29:31;;;;;;;2.50;1.63;;;;;;;14.87;45.44;98113.88;4860567;29;20737;-85
2022/02/08 00:31:58;;;;;;;3.30;1.97;;;;;;;16.59;45.69;98413.13;4868588;29;20202;-85
2022/02/08 00:34:24;;;;;;;2.00;1.67;;;;;;;17.61;45.74;98563.44;4867626;29;20210;-85
2022/02/08 00:36:53;;;;;;;3.30;1.93;;;;;;;18.80;45.71;98772.66;4874400;29;20285;-85
2022/02/08 00:39:23;;;;;;;3.07;1.77;;;;;;;18.12;45.94;98656.47;4878108;29;20215;-86
2022/02/08 00:41:53;;;;;;;2.00;1.80;;;;;;;16.25;45.87;98351.75;4867578;29;20210;-84
2022/02/08 00:44:31;;;;;;;2.50;1.77;;;;;;;17.48;45.75;98548.25;4860172;29;20258;-85
2022/02/08 00:47:11;;;;;;;2.00;1.80;;;;;;;16.73;45.41;98431.75;4892451;29;20258;-84
2022/02/08 00:49:41;;;;;;;2.97;1.97;;;;;;;14.69;45.73;98056.25;4891628;29;20218;-85
2022/02/08 00:52:14;;;;;;;2.57;1.80;;;;;;;16.01;45.98;98286.81;4886641;29;20258;-84
2022/02/08 00:54:48;;;;;;;4.47;2.13;;;;;;;16.60;45.95;98383.53;4877876;29;20207;-84
2022/02/08 00:57:15;;;;;;;2.60;1.90;;;;;;;18.56;45.90;98775.41;4845899;29;20237;-84
2022/02/08 00:59:42;;;;;;;3.17;1.90;;;;;;;14.47;45.92;98101.19;4861009;29;20198;-85
2022/02/08 01:02:12;;;;;;;1.97;1.70;;;;;;;12.93;45.71;97771.72;4860629;29;20276;-85
2022/02/08 01:04:39;;;;;;;3.20;1.90;;;;;;;13.70;45.80;97988.97;4862065;29;20281;-85
2022/02/08 01:07:06;;;;;;;2.40;1.70;;;;;;;14.86;45.75;98129.84;4872716;29;20245;-84
2022/02/08 01:12:00;;;;;;;3.00;1.90;;;;;;;14.49;45.51;98063.34;4893049;29;20700;-85
2022/02/08 01:22:26;;;;;;;3.60;2.10;;;;;;;15.09;45.36;98180.28;4079894;23;20201;-89
2022/02/08 01:25:11;;;;;;;3.03;2.00;;;;;;;11.48;45.20;97548.44;4907662;29;20183;-89
2022/02/08 01:27:52;;;;;;;3.20;2.30;;;;;;;15.19;45.38;98182.63;4899054;29;20178;-89
2022/02/08 01:30:30;;;;;;;2.57;2.00;;;;;;;17.22;45.44;98583.81;4921971;29;20174;-89
2022/02/08 01:47:01;;;;;;;2.00;1.80;;;;;;;18.24;45.60;98684.34;4877406;29;20675;-85
2022/02/08 01:49:37;;;;;;;2.83;1.90;;;;;;;17.85;45.56;98631.91;4879037;29;20285;-84
2022/02/08 01:52:05;;;;;;;5.23;2.07;;;;;;;18.81;45.27;98793.91;4897807;29;20221;-85
2022/02/08 01:54:34;;;;;;;3.23;1.87;;;;;;;17.51;45.25;98561.13;4874764;29;20211;-84
2022/02/08 01:57:01;;;;;;;2.40;1.80;;;;;;;17.89;45.48;98664.38;4889754;29;20230;-84
2022/02/08 01:59:28;;;;;;;3.37;2.10;;;;;;;15.94;45.21;98311.69;4860406;29;20297;-82
2022/02/08 02:01:55;;;;;;;1.90;1.63;;;;;;;16.78;45.40;98476.06;4875865;29;20206;-83
2022/02/08 02:04:24;;;;;;;2.77;2.03;;;;;;;15.63;45.32;98301.22;4893562;29;20230;-85
2022/02/08 02:06:51;;;;;;;2.67;1.63;;;;;;;12.70;45.61;97720.53;4876036;29;20226;-85
2022/02/08 02:09:17;;;;;;;2.57;1.80;;;;;;;13.85;45.29;97996.66;4892069;29;20643;-84
2022/02/08 02:11:44;;;;;;;2.47;1.80;;;;;;;17.66;45.59;98600.19;4876556;29;20254;-84
2022/02/08 02:14:11;;;;;;;2.23;1.77;;;;;;;15.83;45.32;98284.75;4877163;29;20250;-85
2022/02/08 02:19:26;;;;;;;2.93;2.07;;;;;;;14.36;45.22;98026.28;4893533;29;20210;-84
2022/02/08 02:21:59;;;;;;;3.07;1.80;;;;;;;12.83;45.30;97730.69;4891474;29;20210;-84
2022/02/08 02:24:26;;;;;;;3.10;1.80;;;;;;;12.57;45.63;97754.16;4877051;29;20320;-84
2022/02/08 02:26:57;;;;;;;3.23;2.20;;;;;;;16.97;44.97;98555.13;4876740;29;20226;-83
2022/02/08 02:29:24;;;;;;;2.73;2.00;;;;;;;16.04;45.32;98293.72;4883150;29;20229;-85
2022/02/08 02:31:51;;;;;;;2.83;1.90;;;;;;;18.24;45.38;98692.84;4893372;29;20206;-85
2022/02/08 02:34:19;;;;;;;2.80;1.90;;;;;;;18.85;45.40;98786.53;4861625;29;20202;-86
2022/02/08 02:36:48;;;;;;;3.33;2.03;;;;;;;14.46;44.69;98099.44;4861743;29;20229;-84
2022/02/08 02:39:14;;;;;;;3.13;2.13;;;;;;;14.67;44.94;98046.84;4893154;29;20210;-84
2022/02/08 02:41:47;;;;;;;2.40;2.20;;;;;;;18.15;44.88;98666.84;4891032;29;20727;-85
2022/02/08 02:44:18;;;;;;;3.17;2.10;;;;;;;17.49;44.76;98547.44;4890655;29;20226;-83
2022/02/08 02:46:45;;;;;;;2.50;1.90;;;;;;;18.44;45.07;98726.31;4906538;29;20313;-84
2022/02/08 02:49:11;;;;;;;2.77;1.97;;;;;;;18.64;45.02;98757.25;4873527;29;20203;-85
2022/02/08 02:51:41;;;;;;;1.93;1.73;;;;;;;18.27;45.19;98693.03;4906567;29;20206;-83
2022/02/08 02:54:17;;;;;;;3.60;2.00;;;;;;;18.82;44.94;98788.91;4876332;29;20233;-84
2022/02/08 02:56:45;;;;;;;2.53;2.20;;;;;;;17.54;45.23;98591.81;4891342;29;20225;-84
2022/02/08 02:59:15;;;;;;;2.67;2.00;;;;;;;15.17;44.90;98159.75;4876485;29;20747;-85
2022/02/08 03:20:47;;;;;;;2.93;2.07;;;;;;;18.78;44.37;98798.81;4918888;29;20200;-89
2022/02/08 03:23:28;;;;;;;3.20;1.97;;;;;;;14.77;45.13;98131.78;4905373;29;20257;-89
2022/02/08 03:26:13;;;;;;;3.03;2.00;;;;;;;15.86;45.29;98301.06;4904412;29;20206;-89
2022/02/08 03:28:54;;;;;;;2.67;2.17;;;;;;;13.25;44.94;97897.53;4891724;29;20190;-89
2022/02/08 03:31:37;;;;;;;2.17;1.97;;;;;;;15.51;45.46;98362.91;4899351;29;20195;-89
2022/02/08 03:34:04;;;;;;;3.07;1.80;;;;;;;14.81;45.32;98121.06;4912226;29;20178;-90
2022/02/08 03:36:38;;;;;;;2.73;2.07;;;;;;;13.44;45.24;97978.75;4907480;29;20204;-89
2022/02/08 03:39:22;;;;;;;3.37;2.07;;;;;;;13.77;45.31;97978.47;4925955;28;20179;-89
2022/02/08 03:42:17;;;;;;;2.87;1.90;;;;;;;14.21;45.63;98035.34;4897357;29;20592;-89
2022/02/08 03:44:46;;;;;;;2.73;2.27;;;;;;;12.96;45.06;97883.69;4872870;29;20218;-84
2022/02/08 03:47:15;;;;;;;2.93;2.30;;;;;;;12.70;45.31;97880.25;4896451;29;20225;-85
2022/02/08 03:49:41;;;;;;;2.40;1.77;;;;;;;16.54;45.25;98409.41;4910618;29;20579;-84
2022/02/08 03:52:08;;;;;;;2.80;1.93;;;;;;;18.80;44.96;98821.03;4910237;29;20248;-84
2022/02/08 03:54:37;;;;;;;2.47;1.77;;;;;;;18.27;45.04;98712.53;4910087;29;20206;-86
2022/02/08 03:57:07;;;;;;;2.90;1.87;;;;;;;18.40;45.24;98737.97;4879363;29;20226;-84
2022/02/08 03:59:33;;;;;;;2.17;1.80;;;;;;;16.48;45.36;98401.41;4895498;29;20620;-84
2022/02/08 04:02:14;;;;;;;2.30;1.80;;;;;;;15.63;45.09;98377.25;4894801;29;20226;-84
2022/02/08 04:07:18;;;;;;;3.20;2.00;;;;;;;15.56;44.60;98237.41;4879173;29;20234;-85
2022/02/08 04:09:52;;;;;;;2.67;1.80;;;;;;;18.60;44.89;98764.63;4886778;29;20813;-85
2022/02/08 04:12:25;;;;;;;2.47;1.80;;;;;;;15.44;45.18;98217.25;4895534;29;20556;-85
2022/02/08 04:15:09;;;;;;;3.50;2.20;;;;;;;14.68;45.06;98158.22;4895769;29;20198;-85
2022/02/08 04:41:40;;;;;;;2.80;2.03;;;;;;;11.96;45.17;97631.50;4880885;29;20210;-84
2022/02/08 04:44:27;;;;;;;2.53;1.90;;;;;;;12.78;45.33;97820.25;4908700;29;20226;-85
2022/02/08 04:47:14;;;;;;;2.17;1.70;;;;;;;17.64;45.23;98604.28;4895360;29;20277;-85
2022/02/08 04:49:41;;;;;;;2.50;2.00;;;;;;;15.94;45.26;98314.22;4894313;29;20270;-85
2022/02/08 04:52:12;;;;;;;2.00;1.80;;;;;;;16.71;45.40;98496.75;4878646;29;20202;-85
2022/02/08 04:54:51;;;;;;;2.47;2.00;;;;;;;16.07;45.11;98325.22;4903241;29;20199;-85
2022/02/08 04:57:29;;;;;;;2.60;1.90;;;;;;;14.92;45.45;98130.25;4890512;29;20283;-85
2022/02/08 05:00:17;;;;;;;2.00;1.67;;;;;;;18.37;45.45;98791.22;4875541;29;20256;-84
2022/02/08 05:35:58;;;;;;;2.87;2.03;;;;;;;18.34;45.17;98754.47;4890524;29;20222;-84
2022/02/08 05:49:10;;;;;;;5.30;2.47;;;;;;;14.76;44.90;98163.78;4923642;28;20195;-89
2022/02/08 05:54:29;;;;;;;3.20;1.90;;;;;;;18.77;44.87;98825.09;4907079;28;20202;-89
2022/02/08 05:56:56;;;;;;;3.37;1.90;;;;;;;15.07;44.83;98245.13;4920250;28;20261;-89
2022/02/08 05:59:24;;;;;;;2.47;1.87;;;;;;;11.24;44.67;97516.59;4921687;28;20198;-90
2022/02/08 06:01:53;;;;;;;2.57;1.80;;;;;;;14.80;44.21;98177.53;4907096;28;20193;-88
2022/02/08 06:04:37;;;;;;;3.43;2.20;;;;;;;14.61;44.63;98095.38;4897588;28;20297;-88
2022/02/08 06:07:04;;;;;;;2.50;1.67;;;;;;;13.16;44.65;97861.59;4903699;28;20207;-89
2022/02/08 06:09:39;;;;;;;2.60;2.03;;;;;;;17.18;44.70;98561.56;4918100;28;20277;-88
2022/02/08 06:12:15;;;;;;;3.70;2.37;;;;;;;14.81;44.61;98214.69;4919101;28;20190;-88
2022/02/08 06:14:43;;;;;;;3.17;2.00;;;;;;;15.54;44.64;98300.66;4889628;29;20202;-89
2022/02/08 06:17:10;;;;;;;3.13;2.07;;;;;;;14.75;44.52;98135.88;4905985;28;20270;-89
2022/02/08 06:19:40;;;;;;;2.43;1.87;;;;;;;14.33;44.92;98060.63;4918704;28;20209;-89
2022/02/08 06:22:07;;;;;;;2.67;2.00;;;;;;;13.37;44.73;97890.78;4904185;28;20213;-89
2022/02/08 06:24:37;;;;;;;2.70;1.83;;;;;;;13.86;44.43;98064.13;4889341;29;20235;-90
2022/02/08 06:27:09;;;;;;;2.13;1.80;;;;;;;12.93;44.23;97850.69;4887655;29;20195;-90
2022/02/08 06:29:38;;;;;;;2.47;1.90;;;;;;;14.90;44.48;98160.50;4903861;29;20254;-89
2022/02/08 06:32:05;;;;;;;3.67;2.07;;;;;;;14.80;44.47;98220.53;4887673;29;20174;-89
2022/02/08 06:34:46;;;;;;;2.60;2.00;;;;;;;12.40;44.17;97685.72;4904568;29;20210;-88
2022/02/08 06:37:22;;;;;;;3.03;2.00;;;;;;;15.21;44.16;98270.56;4903738;29;20198;-88
2022/02/08 06:40:03;;;;;;;2.77;1.90;;;;;;;12.42;44.41;97730.44;4903482;29;20183;-88
2022/02/08 06:42:32;;;;;;;2.17;1.80;;;;;;;15.13;44.21;98199.97;4902633;29;20189;-89
2022/02/08 06:45:01;;;;;;;3.50;2.00;;;;;;;10.90;44.14;97425.41;4887031;29;20210;-85
2022/02/08 06:47:28;;;;;;;3.43;1.90;;;;;;;13.70;44.04;97904.72;4886596;29;20712;-84
2022/02/08 06:49:54;;;;;;;2.60;1.80;;;;;;;18.08;43.99;98666.38;4859395;29;20253;-85
2022/02/08 06:52:21;;;;;;;2.83;1.90;;;;;;;18.15;43.89;98677.03;4876884;29;20214;-84
2022/02/08 06:54:48;;;;;;;2.20;2.00;;;;;;;17.79;43.84;98611.22;4865035;29;20226;-84
2022/02/08 06:57:15;;;;;;;2.80;1.97;;;;;;;18.52;43.62;98730.16;4892763;29;20925;-84
2022/02/08 06:59:49;;;;;;;2.13;1.93;;;;;;;18.79;43.68;98780.19;4906173;29;20210;-84
2022/02/08 07:02:16;;;;;;;3.50;1.97;;;;;;;18.18;43.72;98661.94;4876168;29;20210;-83
2022/02/08 07:04:43;;;;;;;2.40;1.80;;;;;;;18.72;43.84;98773.00;4876260;29;20226;-84
2022/02/08 07:07:15;;;;;;;3.00;2.17;;;;;;;18.60;44.06;98759.53;4863064;29;20313;-85
2022/02/08 07:09:43;;;;;;;2.80;1.93;;;;;;;18.51;44.19;98764.06;4874241;29;20269;-83
2022/02/08 07:12:10;;;;;;;2.17;1.73;;;;;;;18.27;44.35;98711.63;4890582;29;20293;-84
2022/02/08 07:14:37;;;;;;;2.30;2.00;;;;;;;18.40;44.18;98739.63;4875558;29;20198;-83
2022/02/08 07:17:04;;;;;;;1.70;1.60;;;;;;;18.64;44.11;98782.72;4873392;29;20234;-85
2022/02/08 07:19:30;;;;;;;1.87;1.73;;;;;;;18.67;44.11;98784.56;4885286;29;20717;-83
2022/02/08 07:21:57;;;;;;;2.50;1.70;;;;;;;18.43;44.39;98740.69;4883752;29;20293;-84
2022/02/08 07:24:23;;;;;;;3.70;2.07;;;;;;;18.71;44.48;98804.34;4876388;29;20278;-84
2022/02/08 07:26:53;;;;;;;3.40;1.90;;;;;;;18.24;44.64;98732.69;4865406;29;20233;-84
2022/02/08 07:29:19;;;;;;;2.20;1.83;;;;;;;18.43;44.66;98752.53;4889755;29;20210;-84
2022/02/08 07:31:59;;;;;;;3.00;1.90;;;;;;;18.18;44.25;98727.25;4874675;29;20646;-84
2022/02/08 07:34:46;;;;;;;2.33;1.80;;;;;;;18.33;44.44;98737.47;4900349;29;20289;-83
2022/02/08 07:37:21;;;;;;;4.83;2.17;;;;;;;18.35;44.49;98735.91;4874587;29;20268;-86
2022/02/08 07:39:52;;;;;;;2.20;1.80;;;;;;;18.34;44.39;98739.22;4866652;29;20281;-85
2022/02/08 07:42:19;;;;;;;2.87;2.03;;;;;;;18.43;44.67;98760.16;4880528;29;20289;-84
2022/02/08 07:44:46;;;;;;;2.97;2.03;;;;;;;18.45;44.64;98751.84;4885080;29;20258;-84
2022/02/08 07:47:13;;;;;;;3.00;1.93;;;;;;;18.45;44.41;98750.97;4891113;29;20475;-84
2022/02/08 07:49:41;;;;;;;1.87;1.70;;;;;;;18.38;44.53;98739.53;4885905;29;20290;-84
2022/02/08 07:52:08;;;;;;;2.17;1.90;;;;;;;18.39;44.67;98745.50;4886163;29;20238;-83
2022/02/08 07:54:34;;;;;;;2.20;1.70;;;;;;;18.80;44.86;98810.00;4880152;29;20207;-85
2022/02/08 07:57:01;;;;;;;4.70;2.00;;;;;;;17.96;45.10;98669.06;4858353;29;20252;-84
2022/02/08 07:59:27;;;;;;;1.93;1.60;;;;;;;17.99;44.98;98663.28;4859112;29;20210;-84
2022/02/08 08:01:54;;;;;;;3.43;1.90;;;;;;;18.27;45.41;98704.00;4887552;29;20298;-84
2022/02/08 08:04:20;;;;;;;3.07;1.87;;;;;;;18.44;44.93;98732.25;4880159;29;20207;-83
2022/02/08 08:06:52;;;;;;;2.63;1.60;;;;;;;18.31;45.24;98711.91;4873942;29;20540;-84
2022/02/08 08:09:20;;;;;;;2.53;1.70;;;;;;;18.31;45.03;98708.47;4874582;29;20238;-85
2022/02/08 08:11:48;;;;;;;3.30;1.67;;;;;;;17.99;44.79;98660.75;4873892;29;20234;-85
2022/02/08 08:14:16;;;;;;;4.03;1.70;;;;;;;18.39;45.02;98723.47;4897076;29;20211;-85
2022/02/08 08:16:53;;;;;;;2.10;1.83;;;;;;;18.23;45.16;98696.97;4904232;29;20293;-85
2022/02/08 08:19:37;;;;;;;1.80;1.50;;;;;;;18.61;45.15;98768.91;4891722;29;20233;-86
2022/02/08 08:22:04;;;;;;;1.93;1.70;;;;;;;18.61;44.97;98789.28;4866954;29;20214;-86
2022/02/08 08:24:31;;;;;;;1.73;1.50;;;;;;;18.66;44.90;98777.72;4860242;29;20259;-86
2022/02/08 08:26:58;;;;;;;2.43;1.50;;;;;;;18.30;45.07;98716.91;4859232;29;20612;-85
2022/02/08 08:29:24;;;;;;;1.63;1.53;;;;;;;17.94;44.73;98654.47;4892516;29;20712;-86
2022/02/08 08:31:51;;;;;;;2.57;1.57;;;;;;;18.01;44.82;98666.81;4906624;29;20303;-85
2022/02/08 08:34:18;;;;;;;2.37;1.83;;;;;;;18.86;45.15;98828.19;4864747;29;20651;-86
2022/02/08 08:36:46;;;;;;;2.63;1.90;;;;;;;18.23;45.27;98698.72;4856055;29;20253;-85
2022/02/08 08:39:13;;;;;;;1.93;1.63;;;;;;;18.23;45.17;98702.06;4893203;29;20234;-86
2022/02/08 08:52:17;;;;;;;3.00;1.90;;;;;;;18.63;44.69;98769.88;4895452;29;20285;-87
2022/02/08 08:54:44;;;;;;;3.30;1.83;;;;;;;18.36;43.92;98722.38;4908833;29;20238;-86
2022/02/08 08:57:10;;;;;;;5.27;2.00;;;;;;;18.18;43.97;98687.38;4881108;29;20309;-87
2022/02/08 08:59:37;;;;;;;3.00;2.10;;;;;;;17.80;44.05;98614.63;4874495;29;20226;-87
2022/02/08 09:02:04;;;;;;;3.20;1.97;;;;;;;18.39;44.47;98726.03;4884049;29;20297;-87
2022/02/08 09:04:34;;;;;;;3.03;1.87;;;;;;;18.64;44.51;98764.00;4876716;29;20234;-87
2022/02/08 09:07:01;;;;;;;6.77;2.40;;;;;;;18.40;44.46;98730.31;4906095;29;20313;-86
2022/02/08 09:09:29;;;;;;;2.97;2.07;;;;;;;18.65;44.49;98768.31;4903001;29;20266;-86
2022/02/08 09:14:38;;;;;;;2.47;1.83;;;;;;;18.48;44.75;98735.88;4877504;29;20703;-86
2022/02/08 09:20:46;;;;;;;3.13;1.90;;;;;;;18.48;45.16;98734.22;4883173;29;20214;-87
2022/02/08 09:22:58;;;;;;;2.70;2.07;;;;;;;18.12;44.57;98668.34;4876525;29;20297;-86
2022/02/08 09:30:31;;;;;;;2.53;2.00;;;;;;;18.09;44.72;98666.47;4876516;29;20293;-87
2022/02/08 09:32:57;;;;;;;3.67;1.77;;;;;;;18.83;44.73;98800.84;4905946;29;20237;-86
2022/02/08 09:56:53;;;;;;;1.80;1.50;;;;;;;18.46;44.73;98729.81;5523444;23;20269;-86
2022/02/08 09:59:19;;;;;;;2.67;1.87;;;;;;;18.48;44.85;98759.69;4872092;29;20329;-86
2022/02/08 10:01:53;;;;;;;3.33;2.03;;;;;;;18.41;44.86;98734.63;4858914;29;20242;-86
2022/02/08 10:04:23;;;;;;;2.17;1.63;;;;;;;18.85;44.99;98793.28;4873576;29;20206;-86
2022/02/08 10:06:51;;;;;;;3.13;1.90;;;;;;;18.56;44.96;98749.94;4890465;29;20361;-86
2022/02/08 10:09:18;;;;;;;2.07;1.80;;;;;;;18.76;44.82;98764.72;4873839;29;20313;-86
2022/02/08 10:11:56;;;;;;;2.70;2.00;;;;;;;18.44;44.65;98726.31;4866116;29;20912;-86
2022/02/08 10:18:59;;;;;;;2.40;1.77;;;;;;;18.15;44.71;98666.84;4852147;29;20211;-86
2022/02/08 10:22:45;;;;;;;1.77;1.60;;;;;;;18.58;44.85;98721.25;4877753;29;20573;-85
2022/02/08 10:25:17;;;;;;;2.73;1.90;;;;;;;17.66;44.93;98557.88;4857667;29;20254;-86
2022/02/08 10:27:50;;;;;;;1.77;1.63;;;;;;;18.39;44.83;98690.41;4879655;29;20272;-87
2022/02/08 10:30:45;;;;;;;2.70;1.80;;;;;;;18.75;44.46;98758.78;4877264;29;20234;-86
2022/02/08 10:38:40;;;;;;;2.80;1.83;;;;;;;18.42;44.50;98694.78;4893110;29;20675;-84
2022/02/08 10:41:17;;;;;;;6.07;1.90;;;;;;;18.64;44.73;98724.16;4870576;29;20297;-85
2022/02/08 10:44:02;;;;;;;2.47;1.70;;;;;;;19.15;44.67;98815.50;4860347;29;20225;-86
2022/02/08 10:46:29;;;;;;;2.67;1.80;;;;;;;18.93;44.94;98781.91;4880199;29;20235;-86
2022/02/08 10:49:02;;;;;;;2.47;1.67;;;;;;;18.56;44.63;98712.63;4886702;29;20238;-86
2022/02/08 10:51:33;;;;;;;2.13;1.80;;;;;;;17.53;44.68;98522.31;4876186;29;20241;-85
2022/02/08 10:54:06;;;;;;;3.20;1.67;;;;;;;17.32;44.68;98487.94;4875164;29;20304;-87
2022/02/08 10:56:35;;;;;;;1.73;1.60;;;;;;;18.58;44.96;98723.78;4869650;29;20314;-86
2022/02/08 10:59:27;;;;;;;1.73;1.50;;;;;;;18.90;44.81;98774.97;4875014;29;20249;-86
2022/02/08 11:02:02;;;;;;;2.40;1.57;;;;;;;19.01;44.63;98778.16;4881607;29;20242;-85
2022/02/08 11:04:42;;;;;;;2.33;1.70;;;;;;;18.46;44.60;98676.34;4879296;29;20556;-87
2022/02/08 11:07:18;;;;;;;2.23;1.63;;;;;;;18.71;44.77;98717.75;4888159;29;20598;-86
2022/02/08 11:09:58;;;;;;;3.03;1.80;;;;;;;18.50;44.53;98679.16;4889395;29;20257;-86
2022/02/08 11:20:51;;;;;;;2.13;1.80;;;;;;;19.07;44.39;98761.53;4872152;29;20244;-86
2022/02/08 11:23:36;;;;;;;4.80;1.80;;;;;;;18.71;44.63;98700.78;4876874;29;20306;-85
2022/02/08 11:26:03;;;;;;;2.20;1.73;;;;;;;18.56;44.69;98671.03;4859968;29;20230;-85
2022/02/08 11:28:41;;;;;;;2.47;1.93;;;;;;;18.54;44.44;98673.50;4887035;29;20241;-84
2022/02/08 11:31:53;;;;;;;3.83;2.00;;;;;;;18.67;44.37;98688.69;4880203;29;20862;-85
2022/02/08 11:52:41;;;;;;;2.30;1.83;;;;;;;18.18;44.65;98633.09;4885362;29;20226;-87
2022/02/08 11:58:29;;;;;;;2.07;1.63;;;;;;;12.57;44.84;97675.13;5136839;23;20221;-90
2022/02/08 12:01:24;;;;;;;3.20;2.00;;;;;;;14.78;44.55;98048.41;4933727;29;20241;-90
2022/02/08 12:04:12;;;;;;;2.77;1.97;;;;;;;12.63;44.57;97731.88;4916480;29;20180;-89
2022/02/08 12:07:33;;;;;;;3.37;2.10;;;;;;;13.76;44.98;97940.50;4918879;29;20207;-90
2022/02/08 12:11:43;;;;;;;2.97;1.97;;;;;;;19.07;44.88;98791.25;4908578;29;20146;-89
2022/02/08 12:29:37;;;;;;;3.33;2.20;;;;;;;18.74;44.56;98721.34;4889784;29;20297;-86
2022/02/08 13:00:00;;;;;;;2.90;1.87;;;;;;;19.02;44.38;98718.75;4850212;29;20234;-86
2022/02/08 14:14:10;;;;;;;2.40;1.63;;;;;;;18.93;44.90;98685.09;4873974;29;20309;-87
2022/02/08 14:30:32;;;;;;;2.60;1.90;;;;;;;18.78;44.35;98656.19;4857362;29;20234;-85
2022/02/08 14:36:05;;;;;;;1.97;1.50;;;;;;;18.96;44.70;98686.16;4845440;29;21069;-85
2022/02/08 14:57:45;;;;;;;1.97;1.70;;;;;;;18.99;44.61;98700.75;4849534;29;20235;-84
2022/02/08 15:06:14;;;;;;;3.13;1.57;;;;;;;18.89;44.92;98678.94;4848714;29;20235;-85
2022/02/08 15:08:41;;;;;;;1.90;1.63;;;;;;;18.85;44.73;98676.13;4843154;29;20206;-86
2022/02/08 15:11:11;;;;;;;2.37;1.70;;;;;;;19.11;44.83;98716.72;4828174;29;20710;-84
2022/02/08 15:13:44;;;;;;;1.70;1.60;;;;;;;18.90;44.67;98685.81;4875217;29;20235;-85
2022/02/08 15:18:38;;;;;;;2.87;1.83;;;;;;;18.91;44.40;98684.13;4856168;29;20291;-84
2022/02/08 15:21:07;;;;;;;3.23;1.93;;;;;;;18.77;43.45;98659.56;4827041;29;20207;-84
2022/02/08 15:23:34;;;;;;;3.47;2.33;;;;;;;18.96;42.57;98687.81;4853062;29;20262;-87
2022/02/08 15:26:04;;;;;;;4.10;2.37;;;;;;;18.81;42.59;98670.00;4839171;29;20242;-85
2022/02/08 15:28:31;;;;;;;5.30;2.30;;;;;;;18.93;42.77;98683.44;4842613;29;20261;-85
2022/02/08 15:30:58;;;;;;;3.70;2.20;;;;;;;18.88;43.36;98683.94;4844537;29;20299;-85
2022/02/08 15:33:25;;;;;;;4.53;2.10;;;;;;;18.95;43.09;98693.72;4846458;29;20211;-85
2022/02/08 15:35:53;;;;;;;2.90;1.80;;;;;;;18.86;43.25;98675.38;4844959;29;20721;-85
2022/02/08 15:38:25;;;;;;;2.80;2.10;;;;;;;18.84;43.37;98682.91;4834134;29;20314;-85
2022/02/08 15:40:52;;;;;;;2.57;2.10;;;;;;;18.80;43.59;98672.47;4845108;29;20270;-85
2022/02/08 15:43:18;;;;;;;3.43;1.80;;;;;;;18.96;43.74;98704.00;4861100;29;20322;-85
2022/02/08 15:45:54;;;;;;;4.90;2.20;;;;;;;18.91;43.57;98691.75;4846835;29;20203;-85
2022/02/08 15:48:22;;;;;;;3.23;1.97;;;;;;;19.09;43.53;98724.28;4846447;29;20262;-85
2022/02/08 15:53:52;;;;;;;2.63;2.10;;;;;;;18.79;43.62;98670.69;4856486;29;20294;-84
2022/02/08 15:56:37;;;;;;;3.33;2.13;;;;;;;18.64;44.10;98649.41;4849206;29;20623;-85
2022/02/08 16:07:07;;;;;;;3.67;2.17;;;;;;;18.89;43.82;98698.47;4850388;29;20310;-85
2022/02/08 16:09:44;;;;;;;2.60;1.90;;;;;;;18.93;43.95;98700.38;4861687;29;20282;-85
2022/02/08 16:17:17;;;;;;;3.40;1.80;;;;;;;18.96;44.07;98709.09;4841612;29;20227;-84
2022/02/08 16:24:57;;;;;;;3.50;2.00;;;;;;;18.96;44.00;98723.50;4848023;29;20207;-84
2022/02/08 16:33:40;;;;;;;2.43;1.90;;;;;;;18.98;44.00;98724.47;4848847;29;20325;-84
2022/02/08 16:54:41;;;;;;;3.27;2.10;;;;;;;18.90;43.80;98724.03;4847385;29;20632;-83
2022/02/08 17:46:05;;;;;;;3.90;3.10;;;;;;;18.84;43.66;98708.38;4890417;29;21092;-85
2022/02/08 17:48:35;;;;;;;4.93;3.50;;;;;;;19.03;43.69;98749.41;4893728;29;20258;-84
2022/02/08 17:51:03;;;;;;;3.23;2.70;;;;;;;18.85;43.72;98705.03;4867517;29;20610;-84
2022/02/08 17:53:49;;;;;;;3.83;3.00;;;;;;;18.90;43.77;98708.75;4855569;29;20982;-85
2022/02/08 17:56:16;;;;;;;3.97;2.80;;;;;;;18.87;43.66;98705.13;4892557;29;20293;-84
2022/02/08 17:58:44;;;;;;;4.00;2.70;;;;;;;19.09;43.83;98743.78;4863274;29;20246;-85
2022/02/08 18:01:10;;;;;;;4.53;2.50;;;;;;;19.01;43.80;98735.69;4892445;29;20230;-83
2022/02/08 18:03:37;;;;;;;4.00;2.63;;;;;;;18.85;43.82;98706.69;4877041;29;20245;-85
2022/02/08 18:06:04;;;;;;;4.70;2.83;;;;;;;19.03;44.04;98746.88;4879295;29;20677;-87
2022/02/08 18:08:32;;;;;;;3.33;2.70;;;;;;;18.99;43.68;98734.75;4868802;29;20264;-85
2022/02/08 18:10:59;;;;;;;3.60;2.70;;;;;;;19.11;43.83;98760.06;4896535;29;20300;-83
2022/02/08 18:13:29;;;;;;;5.23;3.13;;;;;;;18.79;43.72;98707.22;4872631;29;20230;-83
2022/02/08 18:15:58;;;;;;;4.40;3.00;;;;;;;18.78;43.82;98709.69;4868896;29;20715;-85
2022/02/08 18:18:30;;;;;;;4.53;3.20;;;;;;;18.94;43.72;98738.69;4880954;29;20219;-86
2022/02/08 18:21:06;;;;;;;5.73;3.00;;;;;;;18.95;43.60;98742.97;4881870;29;20711;-84
2022/02/08 18:50:13;;;;;;;4.20;2.83;;;;;;;18.66;43.81;98694.56;4879805;29;20305;-84
2022/02/08 19:07:17;;;;;;;3.33;2.73;;;;;;;18.87;43.83;98761.16;4892703;29;20318;-85
2022/02/08 19:12:17;;;;;;;3.87;2.70;;;;;;;17.53;44.01;98539.25;4895389;29;20213;-86
2022/02/08 19:20:23;;;;;;;3.33;2.60;;;;;;;17.82;43.99;98591.06;4894404;29;20297;-87
2022/02/08 19:22:50;;;;;;;2.97;2.67;;;;;;;17.14;43.85;98483.41;4894620;29;20284;-85
2022/02/08 19:25:16;;;;;;;3.67;2.87;;;;;;;18.56;44.26;98747.41;4882515;29;20567;-86
2022/02/08 19:27:44;;;;;;;5.10;2.80;;;;;;;17.31;43.76;98503.09;4882740;29;20225;-86
2022/02/08 19:30:12;;;;;;;3.97;2.87;;;;;;;18.89;44.16;98763.00;4888437;29;20222;-86
2022/02/08 19:32:38;;;;;;;3.33;2.70;;;;;;;18.37;44.21;98691.97;4864481;29;20298;-87
2022/02/08 19:35:05;;;;;;;3.97;2.60;;;;;;;18.61;43.81;98725.63;4872462;29;20202;-87
2022/02/08 19:37:32;;;;;;;3.53;2.87;;;;;;;18.53;43.99;98714.13;4887153;29;20214;-86
2022/02/08 19:39:59;;;;;;;2.97;2.40;;;;;;;18.34;44.11;98684.09;4891273;29;20609;-86
2022/02/08 19:42:25;;;;;;;3.40;2.60;;;;;;;18.36;44.02;98692.72;4898938;29;20715;-86
2022/02/08 19:44:57;;;;;;;3.47;2.40;;;;;;;18.35;44.17;98685.00;4896877;29;20728;-87
2022/02/08 19:47:24;;;;;;;3.60;2.70;;;;;;;17.18;43.73;98473.53;4883644;29;20241;-86
2022/02/08 19:49:51;;;;;;;3.30;2.57;;;;;;;18.41;43.69;98690.50;4885784;29;20642;-87
2022/02/08 19:52:20;;;;;;;3.97;2.93;;;;;;;17.28;43.82;98495.28;4879065;29;20213;-87
2022/02/08 19:55:41;;;;;;;2.63;2.40;;;;;;;18.74;44.04;98751.06;4879075;29;20309;-86
2022/02/08 19:57:37;;;;;;;3.40;2.43;;;;;;;18.63;44.10;98724.94;4881012;29;20297;-87
2022/02/08 20:00:08;;;;;;;3.03;2.73;;;;;;;17.97;43.90;98635.22;4882376;29;20236;-85
2022/02/08 20:02:42;;;;;;;2.63;2.40;;;;;;;17.85;44.07;98596.31;4883358;29;20600;-86
2022/02/08 20:05:11;;;;;;;3.10;2.50;;;;;;;19.08;44.05;98806.63;4870107;29;20191;-86
2022/02/08 20:07:38;;;;;;;3.23;2.43;;;;;;;18.57;44.43;98722.03;4865346;29;20253;-88
2022/02/08 20:10:05;;;;;;;2.87;2.30;;;;;;;18.48;44.77;98740.97;4894606;29;20241;-87
2022/02/08 20:12:32;;;;;;;4.60;2.40;;;;;;;18.20;44.45;98701.09;4879088;29;20213;-89
2022/02/08 20:15:07;;;;;;;2.83;2.37;;;;;;;17.97;44.43;98664.88;4895035;29;20296;-88
2022/02/08 20:55:39;;;;;;;2.83;2.50;;;;;;;14.62;44.92;98104.72;5600154;23;20234;-88
2022/02/08 20:58:15;;;;;;;3.53;2.60;;;;;;;18.04;44.93;98618.66;4884980;29;20229;-86
2022/02/08 21:00:49;;;;;;;3.00;2.57;;;;;;;13.10;45.12;97751.81;4880259;29;20643;-87